createdAt,value
2018-09-03T00:02:59.738Z,48.40
2018-09-03T00:08:03.800Z,48.40
2018-09-03T00:13:08.343Z,48.40
2018-09-03T00:18:28.609Z,48.50
2018-09-03T00:23:32.866Z,48.60
2018-09-03T00:28:36.737Z,48.60
2018-09-03T00:33:46.036Z,48.60
2018-09-03T00:39:09.952Z,48.80
2018-09-03T00:44:19.378Z,48.80
2018-09-03T00:49:23.441Z,48.80
2018-09-03T00:54:27.560Z,48.90
2018-09-03T00:59:32.300Z,49.20
2018-09-03T01:04:36.184Z,49.90
2018-09-03T01:09:40.096Z,49.20
2018-09-03T01:14:44.129Z,49.20
2018-09-03T01:19:47.916Z,49.20
2018-09-03T01:24:51.764Z,49.30
2018-09-03T01:29:55.697Z,49.30
2018-09-03T01:34:59.826Z,49.40
2018-09-03T01:40:03.901Z,49.30
2018-09-03T01:45:07.928Z,49.30
2018-09-03T01:50:11.834Z,49.40
2018-09-03T01:55:15.707Z,49.50
2018-09-03T02:00:19.373Z,49.40
2018-09-03T02:05:23.576Z,49.50
2018-09-03T02:10:27.278Z,49.60
2018-09-03T02:15:31.232Z,49.70
2018-09-03T02:20:34.981Z,49.70
2018-09-03T02:25:39.212Z,49.70
2018-09-03T02:30:43.309Z,49.80
2018-09-03T02:35:47.364Z,49.90
2018-09-03T02:40:51.166Z,49.90
2018-09-03T02:45:54.912Z,50.00
2018-09-03T02:50:59.483Z,50.00
2018-09-03T02:56:03.444Z,50.00
2018-09-03T03:01:07.200Z,50.00
2018-09-03T03:06:10.908Z,50.10
2018-09-03T03:11:14.598Z,50.20
2018-09-03T03:16:18.742Z,50.20
2018-09-03T03:21:22.854Z,50.30
2018-09-03T03:26:26.559Z,50.30
2018-09-03T03:31:30.297Z,50.30
2018-09-03T03:36:34.326Z,50.30
2018-09-03T03:41:38.338Z,50.40
2018-09-03T03:46:42.245Z,50.50
2018-09-03T03:52:02.215Z,50.50
2018-09-03T03:57:06.480Z,50.70
2018-09-03T04:02:10.725Z,50.70
2018-09-03T04:07:14.636Z,50.70
2018-09-03T04:12:18.567Z,50.70
2018-09-03T04:17:22.537Z,50.70
2018-09-03T04:22:26.847Z,50.80
2018-09-03T04:27:30.823Z,50.80
2018-09-03T04:32:34.621Z,50.90
2018-09-03T04:37:38.397Z,51.00
2018-09-03T04:42:42.507Z,51.00
2018-09-03T04:48:02.328Z,51.00
2018-09-03T04:53:06.527Z,51.20
2018-09-03T04:58:29.344Z,51.20
2018-09-03T05:03:33.934Z,51.30
2018-09-03T05:08:37.808Z,51.30
2018-09-03T05:13:41.487Z,51.40
2018-09-03T05:18:45.324Z,51.50
2018-09-03T05:23:49.221Z,51.50
2018-09-03T05:28:54.992Z,51.60
2018-09-03T05:33:58.695Z,51.60
2018-09-03T05:39:13.231Z,51.60
2018-09-03T05:44:17.028Z,51.70
2018-09-03T05:49:20.967Z,51.70
2018-09-03T05:54:24.641Z,51.90
2018-09-03T05:59:29.375Z,51.90
2018-09-03T06:04:33.855Z,52.00
2018-09-03T06:09:37.539Z,52.00
2018-09-03T06:14:41.892Z,52.10
2018-09-03T06:19:45.923Z,52.20
2018-09-03T06:24:50.014Z,52.20
2018-09-03T06:29:53.796Z,52.40
2018-09-03T06:34:57.621Z,52.40
2018-09-03T06:40:01.585Z,53.00
2018-09-03T06:45:08.052Z,52.50
2018-09-03T06:50:12.130Z,52.50
2018-09-03T06:55:16.088Z,52.50
2018-09-03T07:00:20.312Z,52.30
2018-09-03T07:05:23.952Z,52.50
2018-09-03T07:10:30.008Z,52.50
2018-09-03T07:15:34.395Z,52.40
2018-09-03T07:20:38.158Z,52.60
2018-09-03T07:25:41.815Z,52.70
2018-09-03T07:30:45.596Z,52.90
2018-09-03T07:35:49.450Z,52.90
2018-09-03T07:40:53.124Z,52.90
2018-09-03T07:46:18.887Z,53.40
2018-09-03T07:51:22.831Z,53.20
2018-09-03T07:56:27.057Z,53.20
2018-09-03T08:01:31.076Z,53.30
2018-09-03T08:06:35.168Z,53.50
2018-09-03T08:11:39.378Z,53.50
2018-09-03T08:16:43.135Z,53.50
2018-09-03T08:21:47.102Z,53.60
2018-09-03T08:26:50.988Z,53.60
2018-09-03T08:31:55.350Z,53.70
2018-09-03T08:36:59.480Z,53.80
2018-09-03T08:42:03.349Z,53.80
2018-09-03T08:58:23.448Z,53.80
2018-09-03T09:03:32.494Z,54.00
2018-09-03T09:19:32.834Z,54.00
2018-09-03T09:24:36.977Z,54.00
2018-09-03T09:29:40.905Z,54.00
2018-09-03T09:34:44.574Z,54.10
2018-09-03T09:39:48.559Z,54.10
2018-09-03T09:44:52.242Z,54.00
2018-09-03T09:49:55.980Z,54.20
2018-09-03T09:54:59.978Z,54.30
2018-09-03T10:00:03.732Z,54.30
2018-09-03T10:05:08.130Z,54.30
2018-09-03T10:10:12.432Z,54.30
2018-09-03T10:15:16.375Z,54.40
2018-09-03T10:20:20.302Z,54.20
2018-09-03T10:25:24.609Z,54.30
2018-09-03T10:30:28.568Z,54.40
2018-09-03T10:35:32.536Z,54.40
2018-09-03T10:40:36.769Z,54.40
2018-09-03T10:45:43.883Z,54.30
2018-09-03T10:50:47.695Z,54.30
2018-09-03T10:55:51.533Z,54.40
2018-09-03T11:00:55.497Z,54.50
2018-09-03T11:05:59.426Z,54.50
2018-09-03T11:11:03.279Z,54.40
2018-09-03T11:16:07.251Z,54.30
2018-09-03T11:21:11.064Z,54.30
2018-09-03T11:26:15.318Z,54.50
2018-09-03T11:31:18.882Z,54.50
2018-09-03T11:36:22.781Z,54.50
2018-09-03T11:41:26.509Z,54.50
2018-09-03T11:46:30.464Z,54.30
2018-09-03T11:51:34.141Z,54.40
2018-09-03T11:56:38.191Z,54.50
2018-09-03T12:01:41.835Z,54.60
2018-09-03T12:06:46.183Z,54.60
2018-09-03T12:11:50.272Z,54.40
2018-09-03T12:16:54.365Z,54.70
2018-09-03T12:21:58.056Z,54.70
2018-09-03T12:27:02.576Z,54.70
2018-09-03T12:32:06.593Z,54.60
2018-09-03T12:37:10.964Z,54.60
2018-09-03T12:42:15.276Z,54.70
2018-09-03T12:47:19.209Z,54.70
2018-09-03T12:52:23.008Z,54.80
2018-09-03T12:57:27.157Z,54.50
2018-09-03T13:02:39.412Z,54.80
2018-09-03T13:07:35.003Z,54.70
2018-09-03T13:12:38.983Z,54.90
2018-09-03T13:17:42.786Z,55.00
2018-09-03T13:22:46.707Z,55.00
2018-09-03T13:27:50.591Z,54.90
2018-09-03T13:32:54.449Z,55.00
2018-09-03T13:37:58.381Z,54.90
2018-09-03T13:43:02.186Z,55.00
2018-09-03T13:48:06.430Z,54.60
2018-09-03T13:53:10.659Z,54.70
2018-09-03T14:03:43.130Z,54.80
2018-09-03T14:08:49.195Z,54.50
2018-09-03T14:13:53.103Z,54.50
2018-09-03T14:19:04.507Z,54.50
2018-09-03T14:24:08.750Z,54.80
2018-09-03T14:29:17.466Z,54.90
2018-09-03T14:34:21.315Z,55.10
2018-09-03T14:39:41.384Z,55.30
2018-09-03T14:44:45.439Z,55.50
2018-09-03T14:49:49.361Z,55.60
2018-09-03T14:54:54.283Z,55.80
2018-09-03T14:59:58.679Z,55.90
2018-09-03T15:05:02.882Z,56.00
2018-09-03T15:10:07.402Z,56.10
2018-09-03T15:15:11.529Z,56.30
2018-09-03T15:20:15.488Z,56.30
2018-09-03T15:25:19.428Z,56.20
2018-09-03T15:30:23.456Z,55.90
2018-09-03T15:35:27.215Z,55.80
2018-09-03T15:40:31.100Z,55.90
2018-09-03T15:45:35.331Z,55.90
2018-09-03T15:50:39.173Z,55.90
2018-09-03T15:55:43.512Z,56.10
2018-09-03T16:00:47.540Z,56.20
2018-09-03T16:05:51.203Z,56.30
2018-09-03T16:10:55.386Z,56.10
2018-09-03T16:15:59.383Z,56.30
2018-09-03T16:21:03.564Z,56.30
2018-09-03T16:26:07.469Z,56.50
2018-09-03T16:31:11.352Z,56.60
2018-09-03T16:36:15.330Z,56.70
2018-09-03T16:41:19.335Z,56.70
2018-09-03T16:46:23.175Z,56.60
2018-09-03T16:51:27.080Z,56.60
2018-09-03T16:56:31.261Z,56.70
2018-09-03T17:01:35.356Z,56.80
2018-09-03T17:06:39.272Z,56.80
2018-09-03T17:11:43.319Z,56.90
2018-09-03T17:16:47.277Z,56.90
2018-09-03T17:21:51.248Z,57.00
2018-09-03T17:26:55.331Z,57.00
2018-09-03T17:31:59.431Z,57.20
2018-09-03T17:37:03.364Z,57.10
2018-09-03T17:42:07.209Z,57.30
2018-09-03T17:47:11.920Z,57.30
2018-09-03T17:52:15.811Z,57.40
2018-09-03T17:57:19.588Z,57.30
2018-09-03T18:02:23.784Z,57.70
2018-09-03T18:07:28.097Z,57.40
2018-09-03T18:12:31.973Z,57.50
2018-09-03T18:17:35.633Z,57.50
2018-09-03T18:22:40.017Z,58.30
2018-09-03T18:27:43.655Z,57.60
2018-09-03T18:32:47.861Z,57.80
2018-09-03T18:37:52.168Z,57.70
2018-09-03T18:42:56.465Z,57.80
2018-09-03T18:48:00.196Z,57.80
2018-09-03T18:53:04.135Z,57.90
2018-09-03T18:58:08.467Z,57.90
2018-09-03T19:03:12.554Z,58.00
2018-09-03T19:08:17.078Z,58.00
2018-09-03T19:13:20.904Z,58.00
2018-09-03T19:18:25.278Z,58.10
2018-09-03T19:23:28.968Z,58.20
2018-09-03T19:28:33.111Z,58.10
2018-09-03T19:33:37.177Z,58.20
2018-09-03T19:55:04.987Z,58.40
2018-09-03T20:00:08.617Z,58.40
2018-09-03T20:05:12.431Z,58.50
2018-09-03T20:10:16.108Z,58.50
2018-09-03T20:15:28.041Z,58.60
2018-09-03T20:20:31.784Z,58.70
2018-09-03T20:25:35.707Z,58.70
2018-09-03T20:30:39.429Z,58.70
2018-09-03T20:35:43.199Z,58.70
2018-09-03T20:40:47.250Z,58.70
2018-09-03T20:45:51.250Z,58.70
2018-09-03T20:50:54.840Z,58.90
2018-09-03T20:55:58.486Z,58.80
2018-09-03T21:01:02.410Z,58.90
2018-09-03T21:06:06.029Z,58.90
2018-09-03T21:11:09.957Z,58.90
2018-09-03T21:16:13.512Z,58.90
2018-09-03T21:21:17.260Z,59.10
2018-09-03T21:26:20.839Z,59.20
2018-09-03T21:31:24.730Z,59.30
2018-09-03T21:36:28.576Z,59.40
2018-09-03T21:41:32.251Z,59.50
2018-09-03T21:46:36.229Z,59.50
2018-09-03T21:51:40.166Z,59.60
2018-09-03T21:56:43.895Z,59.60
2018-09-03T22:01:47.697Z,59.60
2018-09-03T22:06:52.052Z,59.70
2018-09-03T22:11:55.776Z,59.70
2018-09-03T22:16:59.516Z,59.70
2018-09-03T22:22:03.211Z,59.70
2018-09-03T22:27:07.402Z,59.80
2018-09-03T22:32:11.268Z,59.80
2018-09-03T22:37:14.888Z,59.80
2018-09-03T22:42:18.600Z,59.80
2018-09-03T22:47:22.712Z,59.80
2018-09-03T22:52:26.632Z,59.80
2018-09-03T22:57:53.444Z,59.90
2018-09-03T23:02:58.403Z,59.80
2018-09-03T23:08:03.451Z,59.80
2018-09-03T23:13:07.541Z,59.80
2018-09-03T23:18:11.360Z,59.80
2018-09-03T23:23:15.568Z,59.90
2018-09-03T23:28:19.430Z,59.90
2018-09-03T23:33:23.624Z,59.90
2018-09-03T23:38:47.166Z,60.00
2018-09-03T23:43:50.780Z,60.00
2018-09-03T23:48:54.453Z,59.90
2018-09-03T23:53:58.492Z,60.00
2018-09-03T23:59:15.608Z,60.00
